avis per tempestes more information blitzortung!


avis per Pluja more information rain snow radar


Visita la nostra xarxa de llocs de meteo:

Template documentation
and downloads

And another site



Thunderstorms From: 18-09-2018 20:00 Until: 19-09-2018 10:59 warning for: Thunderstorms Level: Yellow info button
Rain From: 18-09-2018 20:00 Until: 19-09-2018 10:59 warning for: Rain Level: Yellow info button

Pagina Historial Weather Underground text

Diari Resum Juliol 3, 2017 Unitats:  Imperial    Mètric   Tant
« Previous Dia
SegĂźent Dia »
Diari Setmana Mensual Anual Personalitzada
  Maxima: Minima: Media:
Temperatura: TemperatureC °F 16.0 °F 25.3 °F
Punt de rosada: DewpointC °F 8.7 °F 11.3 °F
Humitat: Humidity % 28 % 43 %
Wind Speed: WindSpeedKMH mph 0.0 mph 7.3 mph
RĂ fegues de vent: WindSpeedGustKMH mph - -
Vent:- - SSW
Pression baro: PressurehPa in 1016.8 in -
Precipitacions: 0.0 in    
Historical Graphs
 
 
Dades de taula per Juliol 3, 2017
Temps Temperatura Punt de rosada Pression baro Vent Wind Speed RĂ fegues de vent Humitat Rainfall Rate (Hourly)
TemperatureC °F DewpointC °F PressurehPa in Calm     Humidity % HourlyPrecipMM in
00:00 16.8 °F 10.8 °F 1019.9 in Calm     68 % 0.0 in
00:03 20.5 °F 10.9 °F 1021.9 in NE 3.7 mph 3.7 mph 54 % 0.0 in
00:10 16.7 °F 10.8 °F 1019.9 in Calm     68 % 0.0 in
00:20 16.3 °F 10.4 °F 1019.9 in SSW 3.2 mph 3.2 mph 68 % 0.0 in
00:30 16.0 °F 10.3 °F 1019.9 in SW 1.6 mph 3.2 mph 69 % 0.0 in
00:40 16.1 °F 10.6 °F 1019.9 in Calm   1.6 mph 70 % 0.0 in
00:50 16.2 °F 10.7 °F 1019.9 in Calm     70 % 0.0 in
01:00 16.1 °F 10.6 °F 1019.9 in Calm     70 % 0.0 in
01:10 16.1 °F 10.6 °F 1019.9 in Calm   1.6 mph 70 % 0.0 in
01:20 16.2 °F 10.9 °F 1019.9 in Calm   1.6 mph 71 % 0.0 in
01:30 16.1 °F 10.6 °F 1020.9 in Calm   1.6 mph 70 % 0.0 in
01:40 16.0 °F 10.7 °F 1020.9 in ENE 1.6 mph 1.6 mph 71 % 0.0 in
01:50 16.3 °F 11.1 °F 1020.9 in Calm   1.6 mph 71 % 0.0 in
02:00 16.7 °F 11.4 °F 1020.9 in NE 1.6 mph 1.6 mph 71 % 0.0 in
02:10 16.4 °F 10.7 °F 1020.9 in NNE 1.6 mph 3.2 mph 69 % 0.0 in
02:20 16.4 °F 10.7 °F 1020.9 in SW 3.2 mph 3.2 mph 69 % 0.0 in
02:30 16.6 °F 10.9 °F 1020.9 in SW 1.6 mph 3.2 mph 69 % 0.0 in
02:40 17.3 °F 11.6 °F 1020.9 in Calm   4.8 mph 69 % 0.0 in
02:50 17.4 °F 11.2 °F 1021.9 in SSW 1.6 mph 4.8 mph 67 % 0.0 in
03:00 18.2 °F 11.9 °F 1021.9 in Calm   1.6 mph 67 % 0.0 in
03:10 18.2 °F 11.5 °F 1021.9 in SW 1.6 mph 3.2 mph 65 % 0.0 in
03:20 19.1 °F 11.9 °F 1021.9 in Calm   3.2 mph 63 % 0.0 in
03:30 19.5 °F 11.5 °F 1021.9 in East 3.2 mph 6.4 mph 60 % 0.0 in
03:40 20.2 °F 11.7 °F 1021.9 in NE 3.2 mph 3.2 mph 58 % 0.0 in
03:50 20.2 °F 11.4 °F 1021.9 in NNE 3.2 mph 6.4 mph 57 % 0.0 in
04:00 21.1 °F 12.0 °F 1021.9 in NNE 8.0 mph 8.0 mph 56 % 0.0 in
04:10 21.5 °F 12.1 °F 1021.9 in NNE 3.2 mph 6.4 mph 55 % 0.0 in
04:20 22.4 °F 12.6 °F 1021.9 in ESE 1.6 mph 3.2 mph 54 % 0.0 in
04:30 22.6 °F 12.6 °F 1021.9 in SSW 1.6 mph 4.8 mph 53 % 0.0 in
04:40 23.0 °F 12.6 °F 1021.9 in SW 1.6 mph 4.8 mph 52 % 0.0 in
04:50 23.2 °F 12.5 °F 1021.9 in SSW 1.6 mph 4.8 mph 51 % 0.0 in
05:00 23.5 °F 12.8 °F 1021.9 in Calm   6.4 mph 51 % 0.0 in
05:10 24.4 °F 13.3 °F 1021.9 in SSW 1.6 mph 4.8 mph 50 % 0.0 in
05:20 24.9 °F 13.4 °F 1021.9 in South 3.2 mph 4.8 mph 49 % 0.0 in
05:30 25.0 °F 12.9 °F 1021.9 in SSE 4.8 mph 4.8 mph 47 % 0.0 in
05:35 24.2 °F 12.2 °F 1021.9 in SE 3.2 mph 6.4 mph 47 % 0.0 in
10:36 24.3 °F 12.3 °F 1021.9 in East 4.7 mph 5.8 mph 47 % 0.0 in
10:37 24.3 °F 12.3 °F 1021.9 in SE 4.2 mph 5.8 mph 47 % 0.0 in
10:42 25.0 °F 12.9 °F 1020.9 in WNW 5.6 mph 5.6 mph 47 % 0.0 in
10:47 25.2 °F 13.1 °F 1020.9 in SW 7.4 mph 7.4 mph 47 % 0.0 in
10:52 25.5 °F 13.1 °F 1020.9 in SE 3.7 mph 3.7 mph 46 % 0.0 in
10:57 25.2 °F 12.8 °F 1020.9 in SSW 3.7 mph 3.7 mph 46 % 0.0 in
11:02 25.6 °F 12.8 °F 1020.9 in SSE 5.6 mph 5.6 mph 45 % 0.0 in
11:07 25.6 °F 12.8 °F 1020.9 in East 5.8 mph 5.8 mph 45 % 0.0 in
11:12 25.5 °F 12.7 °F 1020.9 in ENE 5.6 mph 5.6 mph 45 % 0.0 in
11:17 26.1 °F 12.9 °F 1020.9 in WSW 3.9 mph 3.9 mph 44 % 0.0 in
11:22 26.2 °F 13.0 °F 1020.9 in SE 7.4 mph 7.4 mph 44 % 0.0 in
11:27 26.5 °F 13.3 °F 1020.9 in SSW 5.6 mph 5.6 mph 44 % 0.0 in
11:32 26.9 °F 13.6 °F 1020.9 in WNW 11.1 mph 11.1 mph 44 % 0.0 in
11:37 28.1 °F 14.0 °F 1020.9 in SW 4.2 mph 4.2 mph 42 % 0.0 in
11:42 28.0 °F 13.9 °F 1019.9 in WSW 7.4 mph 7.4 mph 42 % 0.0 in
11:47 28.4 °F 14.2 °F 1019.9 in SW 5.6 mph 5.6 mph 42 % 0.0 in
11:52 28.3 °F 13.8 °F 1019.9 in ESE 6.9 mph 6.9 mph 41 % 0.0 in
11:57 27.8 °F 12.9 °F 1019.9 in SSE 5.6 mph 5.6 mph 40 % 0.0 in
12:02 27.6 °F 13.2 °F 1019.9 in ESE 5.6 mph 5.6 mph 41 % 0.0 in
12:07 27.9 °F 13.1 °F 1019.9 in ENE 5.6 mph 5.6 mph 40 % 0.0 in
12:12 28.1 °F 13.6 °F 1019.9 in SW 6.4 mph 6.4 mph 41 % 0.0 in
12:17 28.8 °F 13.8 °F 1019.9 in SW 9.3 mph 9.3 mph 40 % 0.0 in
12:22 29.5 °F 13.7 °F 1019.9 in SW 3.9 mph 3.9 mph 38 % 0.0 in
12:27 29.2 °F 13.4 °F 1019.9 in NW 5.6 mph 5.6 mph 38 % 0.0 in
12:32 29.4 °F 13.6 °F 1019.9 in SW 7.4 mph 7.4 mph 38 % 0.0 in
12:37 29.8 °F 13.6 °F 1019.9 in SSW 5.6 mph 5.6 mph 37 % 0.0 in
12:42 29.8 °F 13.6 °F 1019.9 in SSW 3.7 mph 3.7 mph 37 % 0.0 in
12:47 29.9 °F 13.2 °F 1019.9 in West 9.3 mph 9.3 mph 36 % 0.0 in
12:52 29.6 °F 12.5 °F 1019.9 in WSW 13.0 mph 13.0 mph 35 % 0.0 in
12:57 30.0 °F 12.9 °F 1019.9 in WSW 9.3 mph 9.3 mph 35 % 0.0 in
13:02 30.1 °F 12.5 °F 1019.9 in WSW 11.1 mph 11.1 mph 34 % 0.0 in
13:07 30.0 °F 11.9 °F 1019.9 in SW 9.7 mph 9.7 mph 33 % 0.0 in
13:12 30.3 °F 12.2 °F 1019.9 in SSE 4.7 mph 4.7 mph 33 % 0.0 in
13:17 30.4 °F 11.8 °F 1019.9 in SW 13.0 mph 13.0 mph 32 % 0.0 in
13:22 30.6 °F 12.5 °F 1019.9 in SW 11.1 mph 11.1 mph 33 % 0.0 in
13:27 30.3 °F 11.8 °F 1019.9 in South 9.3 mph 9.3 mph 32 % 0.0 in
13:32 31.0 °F 11.9 °F 1019.9 in SSE 3.7 mph 3.7 mph 31 % 0.0 in
13:37 29.9 °F 11.9 °F 1019.9 in WSW 5.3 mph   33 % 0.0 in
13:42 30.8 °F 12.7 °F 1019.9 in SSW 7.4 mph 7.4 mph 33 % 0.0 in
13:47 30.9 °F 12.8 °F 1019.9 in West 11.1 mph 11.1 mph 33 % 0.0 in
13:52 31.2 °F 12.6 °F 1019.9 in SSE 6.4 mph 6.4 mph 32 % 0.0 in
13:57 31.2 °F 12.6 °F 1018.8 in SW 5.6 mph 7.2 mph 32 % 0.0 in
14:02 31.7 °F 13.4 °F 1018.8 in West 7.4 mph 7.4 mph 33 % 0.0 in
14:07 30.3 °F 13.1 °F 1018.8 in ENE 9.3 mph 9.3 mph 35 % 0.0 in
14:12 30.5 °F 13.3 °F 1018.8 in SW 13.0 mph 13.0 mph 35 % 0.0 in
14:17 31.5 °F 13.7 °F 1018.8 in SW 3.7 mph 4.2 mph 34 % 0.0 in
14:22 31.7 °F 13.9 °F 1018.8 in SW 9.3 mph 9.3 mph 34 % 0.0 in
14:27 31.5 °F 13.7 °F 1018.8 in West 11.4 mph 11.4 mph 34 % 0.0 in
14:32 31.6 °F 13.8 °F 1018.8 in SW 10.0 mph 10.0 mph 34 % 0.0 in
14:37 31.2 °F 13.5 °F 1018.8 in SSW 16.7 mph 16.7 mph 34 % 0.0 in
14:42 31.5 °F 13.7 °F 1018.8 in SW 13.0 mph 13.0 mph 34 % 0.0 in
14:47 31.4 °F 13.7 °F 1018.8 in WSW 9.7 mph 9.7 mph 34 % 0.0 in
14:52 31.4 °F 13.2 °F 1018.8 in West 7.4 mph 7.6 mph 33 % 0.0 in
14:57 31.4 °F 13.2 °F 1018.8 in SSW 14.8 mph 14.8 mph 33 % 0.0 in
15:02 31.3 °F 12.6 °F 1018.8 in SSW 9.5 mph 9.5 mph 32 % 0.0 in
15:07 31.2 °F 12.6 °F 1018.8 in SSW 14.8 mph 14.8 mph 32 % 0.0 in
15:12 31.2 °F 12.6 °F 1018.8 in SW 14.8 mph 14.8 mph 32 % 0.0 in
15:17 31.2 °F 12.1 °F 1018.8 in SW 9.3 mph 9.3 mph 31 % 0.0 in
15:22 31.3 °F 12.2 °F 1018.8 in SW 11.1 mph 11.1 mph 31 % 0.0 in
15:27 31.4 °F 12.2 °F 1018.8 in WNW 9.3 mph 9.3 mph 31 % 0.0 in
15:32 31.2 °F 11.6 °F 1018.8 in SSW 6.9 mph 7.2 mph 30 % 0.0 in
15:37 31.1 °F 11.5 °F 1018.8 in SW 9.5 mph 9.5 mph 30 % 0.0 in
15:42 31.1 °F 11.5 °F 1018.8 in South 10.8 mph 10.8 mph 30 % 0.0 in
15:47 31.5 °F 11.8 °F 1018.8 in SSW 14.8 mph 14.8 mph 30 % 0.0 in
15:52 31.3 °F 11.7 °F 1018.8 in South 14.8 mph 14.8 mph 30 % 0.0 in
15:57 31.3 °F 11.7 °F 1017.8 in SW 11.1 mph 11.1 mph 30 % 0.0 in
16:02 30.8 °F 10.7 °F 1017.8 in SW 13.0 mph 13.0 mph 29 % 0.0 in
16:07 31.4 °F 11.2 °F 1017.8 in WSW 16.1 mph 16.1 mph 29 % 0.0 in
16:12 31.5 °F 11.3 °F 1017.8 in South 13.0 mph 13.0 mph 29 % 0.0 in
16:17 31.8 °F 11.6 °F 1017.8 in SW 11.1 mph 11.1 mph 29 % 0.0 in
16:22 31.0 °F 10.9 °F 1017.8 in SW 16.7 mph 16.7 mph 29 % 0.0 in
16:27 30.7 °F 10.6 °F 1017.8 in WSW 14.5 mph 14.5 mph 29 % 0.0 in
16:32 30.3 °F 9.8 °F 1017.8 in SW 20.4 mph 20.4 mph 28 % 0.0 in
16:37 30.1 °F 9.6 °F 1017.8 in WNW 20.4 mph 20.4 mph 28 % 0.0 in
16:42 29.8 °F 9.3 °F 1017.8 in SSW 16.7 mph 16.7 mph 28 % 0.0 in
16:47 29.6 °F 9.2 °F 1017.8 in SW 14.8 mph 14.8 mph 28 % 0.0 in
16:52 29.9 °F 9.4 °F 1017.8 in SSE 13.0 mph 13.0 mph 28 % 0.0 in
16:57 29.4 °F 9.0 °F 1017.8 in SW 20.4 mph 20.4 mph 28 % 0.0 in
17:02 29.6 °F 9.7 °F 1017.8 in WSW 15.6 mph 15.6 mph 29 % 0.0 in
17:07 29.7 °F 9.8 °F 1017.8 in SSW 13.0 mph 13.0 mph 29 % 0.0 in
17:12 29.2 °F 8.8 °F 1016.8 in SSW 16.7 mph 16.7 mph 28 % 0.0 in
17:17 28.9 °F 9.1 °F 1016.8 in SW 20.4 mph 20.4 mph 29 % 0.0 in
17:22 29.0 °F 8.7 °F 1016.8 in SW 14.8 mph 14.8 mph 28 % 0.0 in
17:27 29.3 °F 9.4 °F 1017.8 in SSW 16.7 mph 16.7 mph 29 % 0.0 in
17:32 29.2 °F 9.3 °F 1017.8 in South 14.8 mph 14.8 mph 29 % 0.0 in
17:37 29.2 °F 9.3 °F 1017.8 in WSW 20.4 mph 20.4 mph 29 % 0.0 in
17:42 28.9 °F 9.6 °F 1017.8 in SSW 14.8 mph 14.8 mph 30 % 0.0 in
17:47 28.9 °F 9.6 °F 1017.8 in SW 13.7 mph 13.7 mph 30 % 0.0 in
17:52 29.0 °F 9.2 °F 1017.8 in SW 16.7 mph 16.7 mph 29 % 0.0 in
17:57 28.8 °F 9.5 °F 1016.8 in West 14.8 mph 14.8 mph 30 % 0.0 in
18:02 28.9 °F 9.6 °F 1016.8 in SSE 13.0 mph 13.0 mph 30 % 0.0 in
18:07 28.5 °F 9.2 °F 1016.8 in SSW 22.2 mph 22.2 mph 30 % 0.0 in
18:12 28.7 °F 9.4 °F 1017.8 in SW 13.0 mph 13.0 mph 30 % 0.0 in
18:17 28.7 °F 9.4 °F 1017.8 in SW 10.0 mph 10.0 mph 30 % 0.0 in
18:22 28.5 °F 9.2 °F 1017.8 in SW 11.1 mph 11.1 mph 30 % 0.0 in
18:27 28.7 °F 9.9 °F 1017.8 in SSW 12.6 mph 12.6 mph 31 % 0.0 in
18:32 28.5 °F 9.7 °F 1017.8 in WSW 14.8 mph 14.8 mph 31 % 0.0 in
18:37 27.9 °F 9.2 °F 1017.8 in South 11.1 mph 11.1 mph 31 % 0.0 in
18:42 28.2 °F 9.4 °F 1017.8 in SSE 9.0 mph 9.0 mph 31 % 0.0 in
18:47 28.2 °F 9.4 °F 1017.8 in SSW 8.7 mph 8.7 mph 31 % 0.0 in
18:52 27.8 °F 9.6 °F 1017.8 in WSW 11.1 mph 11.1 mph 32 % 0.0 in
18:57 27.5 °F 9.3 °F 1017.8 in SSW 16.7 mph 16.7 mph 32 % 0.0 in
19:02 27.4 °F 9.2 °F 1017.8 in South 13.0 mph 13.0 mph 32 % 0.0 in
19:07 27.3 °F 9.2 °F 1017.8 in South 13.0 mph 13.0 mph 32 % 0.0 in
19:10 21.2 °F 11.5 °F 1021.9 in WSW 4.8 mph 4.8 mph 54 % 0.0 in
19:12 27.4 °F 9.2 °F 1017.8 in SW 11.1 mph 11.1 mph 32 % 0.0 in
19:17 27.1 °F 9.0 °F 1017.8 in South 9.5 mph 9.5 mph 32 % 0.0 in
19:20 21.1 °F 11.7 °F 1018.8 in SW 1.6 mph 4.8 mph 55 % 0.0 in
19:22 26.9 °F 9.3 °F 1017.8 in WSW 13.0 mph 13.0 mph 33 % 0.0 in
19:27 26.7 °F 9.6 °F 1017.8 in South 9.3 mph 9.3 mph 34 % 0.0 in
19:30 20.9 °F 11.8 °F 1018.8 in WSW 3.2 mph 3.2 mph 56 % 0.0 in
19:32 26.8 °F 9.6 °F 1017.8 in SSW 14.8 mph 14.8 mph 34 % 0.0 in
19:37 26.7 °F 9.6 °F 1017.8 in West 3.7 mph 3.7 mph 34 % 0.0 in
19:40 20.8 °F 12.2 °F 1018.8 in WSW 1.6 mph 3.2 mph 58 % 0.0 in
19:42 26.6 °F 9.9 °F 1017.8 in SW 13.0 mph 13.0 mph 35 % 0.0 in
19:47 26.5 °F 9.8 °F 1017.8 in East 9.3 mph 9.3 mph 35 % 0.0 in
19:50 20.7 °F 12.1 °F 1018.8 in West 1.6 mph 4.8 mph 58 % 0.0 in
19:52 26.4 °F 10.1 °F 1017.8 in SW 11.1 mph 11.1 mph 36 % 0.0 in
19:57 26.3 °F 10.1 °F 1017.8 in WSW 5.6 mph 5.6 mph 36 % 0.0 in
20:00 20.7 °F 12.7 °F 1018.8 in West 3.2 mph 4.8 mph 60 % 0.0 in
20:02 26.1 °F 9.8 °F 1017.8 in SSW 14.8 mph 14.8 mph 36 % 0.0 in
20:07 26.1 °F 10.3 °F 1017.8 in SW 9.3 mph 9.3 mph 37 % 0.0 in
20:10 20.6 °F 12.6 °F 1018.8 in West 3.2 mph 3.2 mph 60 % 0.0 in
20:12 25.9 °F 10.1 °F 1017.8 in SSW 14.0 mph 14.0 mph 37 % 0.0 in
20:17 25.8 °F 10.0 °F 1017.8 in South 9.3 mph 9.3 mph 37 % 0.0 in
20:20 20.5 °F 12.9 °F 1018.8 in West 3.2 mph 4.8 mph 62 % 0.0 in
20:22 25.7 °F 9.9 °F 1017.8 in SW 13.0 mph 13.0 mph 37 % 0.0 in
20:27 25.5 °F 10.1 °F 1017.8 in SW 9.3 mph 9.3 mph 38 % 0.0 in
20:32 25.4 °F 10.1 °F 1017.8 in SW 10.3 mph 10.3 mph 38 % 0.0 in
20:34 25.3 °F 9.9 °F 1017.8 in WSW 11.1 mph 11.1 mph 38 % 0.0 in
20:39 25.3 °F 9.9 °F 1017.8 in SSW 6.4 mph 6.4 mph 38 % 0.0 in
20:40 20.3 °F 13.0 °F 1018.8 in WSW 3.2 mph 3.2 mph 63 % 0.0 in
20:44 25.1 °F 10.2 °F 1017.8 in SW 9.0 mph 9.0 mph 39 % 0.0 in
20:49 25.0 °F 10.1 °F 1017.8 in SSE 5.6 mph 5.6 mph 39 % 0.0 in
20:50 20.3 °F 13.5 °F 1018.8 in West 3.2 mph 3.2 mph 65 % 0.0 in
20:54 24.8 °F 10.3 °F 1017.8 in SW 9.3 mph 9.3 mph 40 % 0.0 in
20:59 24.7 °F 10.2 °F 1017.8 in SW 3.7 mph 3.7 mph 40 % 0.0 in
21:00 20.3 °F 13.7 °F 1017.8 in West 3.2 mph 4.8 mph 66 % 0.0 in
21:04 24.6 °F 10.4 °F 1017.8 in SW 3.9 mph 3.9 mph 41 % 0.0 in
21:09 24.5 °F 10.4 °F 1017.8 in SW 3.7 mph 3.7 mph 41 % 0.0 in
21:10 20.1 °F 14.0 °F 1017.8 in Calm   1.6 mph 68 % 0.0 in
21:14 24.3 °F 10.2 °F 1017.8 in SW 5.6 mph 5.6 mph 41 % 0.0 in
21:19 24.1 °F 10.0 °F 1017.8 in WSW 5.6 mph 5.6 mph 41 % 0.0 in
21:20 19.9 °F 14.3 °F 1018.8 in Calm     70 % 0.0 in
21:24 24.0 °F 10.3 °F 1017.8 in South 5.6 mph 5.6 mph 42 % 0.0 in
21:29 23.8 °F 10.1 °F 1017.8 in West 3.7 mph 3.7 mph 42 % 0.0 in
21:30 19.6 °F 13.8 °F 1018.8 in Calm   1.6 mph 69 % 0.0 in
21:34 23.7 °F 10.4 °F 1017.8 in SW 6.1 mph 6.1 mph 43 % 0.0 in
21:39 23.5 °F 10.2 °F 1017.8 in WSW 7.4 mph 7.4 mph 43 % 0.0 in
21:40 19.3 °F 13.7 °F 1018.8 in Calm     70 % 0.0 in
21:44 23.4 °F 10.4 °F 1017.8 in SSW 3.7 mph 3.7 mph 44 % 0.0 in
21:49 23.3 °F 10.3 °F 1017.8 in West 5.6 mph 5.6 mph 44 % 0.0 in
21:50 19.1 °F 13.7 °F 1017.8 in Calm   1.6 mph 71 % 0.0 in
21:54 23.2 °F 10.6 °F 1017.8 in West 3.2 mph 3.2 mph 45 % 0.0 in
21:55 23.2 °F 10.6 °F 1017.8 in WNW 3.7 mph 3.7 mph 45 % 0.0 in
22:00 23.1 °F 10.5 °F 1018.8 in WSW 3.7 mph 3.7 mph 45 % 0.0 in
22:05 23.0 °F 10.8 °F 1018.8 in West 3.7 mph 3.7 mph 46 % 0.0 in
22:10 22.9 °F 10.7 °F 1018.8 in WSW 3.7 mph 3.7 mph 46 % 0.0 in
22:15 22.8 °F 10.9 °F 1017.8 in SW 3.7 mph 3.7 mph 47 % 0.0 in
22:20 22.8 °F 10.9 °F 1017.8 in WSW 3.7 mph 3.7 mph 47 % 0.0 in
22:25 22.7 °F 10.8 °F 1017.8 in WSW 1.4 mph 1.9 mph 47 % 0.0 in
22:30 22.6 °F 10.7 °F 1018.8 in West 5.6 mph 5.6 mph 47 % 0.0 in
22:35 22.5 °F 10.6 °F 1018.8 in WSW 7.4 mph 7.4 mph 47 % 0.0 in
22:40 22.5 °F 10.9 °F 1018.8 in West 3.9 mph 3.9 mph 48 % 0.0 in
22:45 22.4 °F 10.8 °F 1018.8 in SW 4.2 mph 4.2 mph 48 % 0.0 in
22:50 22.3 °F 10.8 °F 1018.8 in WSW 3.7 mph 3.7 mph 48 % 0.0 in
22:55 22.2 °F 10.7 °F 1018.8 in West 3.7 mph 3.7 mph 48 % 0.0 in
23:00 22.1 °F 10.6 °F 1018.8 in SW 4.2 mph 4.2 mph 48 % 0.0 in
23:05 22.0 °F 10.8 °F 1018.8 in SW 3.7 mph 3.7 mph 49 % 0.0 in
23:10 22.0 °F 10.8 °F 1018.8 in SW 3.7 mph 3.7 mph 49 % 0.0 in
23:15 21.9 °F 10.7 °F 1018.8 in West 3.7 mph 3.7 mph 49 % 0.0 in
23:20 21.8 °F 10.6 °F 1018.8 in WSW 3.7 mph 3.7 mph 49 % 0.0 in
23:25 21.8 °F 10.9 °F 1018.8 in WSW 1.9 mph 2.3 mph 50 % 0.0 in
23:30 21.7 °F 10.8 °F 1018.8 in WNW 3.7 mph 3.7 mph 50 % 0.0 in
23:35 21.7 °F 11.1 °F 1018.8 in WSW 2.3 mph   51 % 0.0 in
23:40 21.6 °F 11.0 °F 1018.8 in West 3.7 mph 3.7 mph 51 % 0.0 in
23:41 21.6 °F 11.0 °F 1018.8 in West 3.7 mph 3.7 mph 51 % 0.0 in
23:46 21.5 °F 10.9 °F 1018.8 in West 3.2 mph 3.2 mph 51 % 0.0 in
23:50 17.7 °F 13.4 °F 1017.8 in WNW 1.6 mph 3.2 mph 76 % 0.0 in
23:51 21.5 °F 11.2 °F 1018.8 in West 4.2 mph 4.2 mph 52 % 0.0 in
23:56 21.4 °F 11.1 °F 1018.8 in WSW 4.2 mph 4.2 mph 52 % 0.0 in
Meteo Sesrovires
Elogis d' Weather Underground - 1.5 mb

Guio original per  Jim McMurry - jmcmurry@mwt.net Adaptat per a la plantilla per  Wim van der Kuil - Leuven-Template.eu

Trobareu la nostra informacio del temps tambe a:

Weather Underground

AWEKAS